Aviation Digital Data Service (ADDS)

Output produced by METARs form (1128 UTC 19 January 2019)
found at http://www.aviationweather.gov/metar/data/
 
RKTU 191100Z 01003KT 8000 NSC M01/M06 Q1019
TAF RKTU 191100Z 1912/2018 27006KT 9000 SCT030 BKN100 TNM03/1921Z TX04/2006Z 
     BECMG 1918/1919 33006KT 4800 -RA BR SCT015 BKN030 
     BECMG 1921/1922 9999 NSW SCT030
       
RKTN 191100Z 02002KT CAVOK 07/M07 Q1018
TAF RKTN 191100Z 1912/2018 24006KT 9000 SCT030 BKN100 TN01/1921Z TX06/2007Z 
     BECMG 2000/2001 31008KT 9999 SCT040
       
RKPK 191100Z 21005KT 9999 -RA BKN050 OVC080 08/02 Q1018
TAF RKPK 191100Z 1912/2018 33006KT 9000 -RA BKN050 OVC080 TX07/2006Z TNM01/2018Z

     BECMG 1917/1918 9999 NSW BKN030 
     BECMG 1921/1922 33008KT SCT030 
     BECMG 2003/2004 33010G20KT FEW030
       
RKSS 191100Z 35004KT 4500 BR FEW030 SCT150 02/M03 Q1019 NOSIG
TAF RKSS 191100Z 1912/2018 30005KT 3200 BR FEW010 SCT030 BKN120 TNM05/1922Z
TX02/2006Z 
     TEMPO 1913/1916 33006KT 2000 FEW005 BKN030 
     BECMG 1918/1919 33009KT 6000 NSW NSC 
     BECMG 1923/1924 33015G30KT CAVOK 
     TEMPO 2009/2012 33010KT 
     BECMG 2013/2014 33006KT
       
RKSI 191100Z 31003KT 6000 BKN040 04/00 Q1019 NOSIG
TAF RKSI 191100Z 1912/2018 32007KT 4200 BR BKN030 TNM03/1921Z TX01/2005Z 
     TEMPO 1914/1916 2800 
     BECMG 1918/1919 32015G25KT 6000 NSW NSC 
     BECMG 2000/2001 32020G35KT CAVOK 
     BECMG 2010/2011 31015G25KT
       
RKPC 191100Z 26008KT 9999 -RA BKN030 OVC100 12/10 Q1018 NOSIG
TAF RKPC 191100Z 1912/2018 26010KT 6000 -RA BKN030 OVC100 TN06/1922Z TX07/2002Z 
     BECMG 1919/1920 34015G28KT NSW
       
RKJK 191056Z 15006KT 6SM HZ BKN047 05/01 A3011 RMK AO2A SLPNO ALSTG/SLP ESTMD T00460007 PNO CHINO RWY18 $
TAF RKJK 190700Z 1907/2013 VRB06KT 8000 HZ OVC050 QNH3006INS 
     BECMG 1917/1918 33010G20KT 9999 SKC QNH3006INS 
     TEMPO 1918/1920 4800 -SHRA OVC010 
     BECMG 2000/2001 33020G30KT 9999 SKC QNH3020INS 
     BECMG 2008/2009 33010G15KT 9999 BKN025 QNH3022INS TX09/2006Z TNM01/1921Z
       
RKSO 191055Z 10004KT 6SM HZ FEW120 01/M03 A3009 RMK AO2A SLP193
TAF RKSO 191100Z 1911/2017 VRB06KT 8000 HZ SCT030 SCT150 QNH3006INS 
     BECMG 1915/1916 VRB06KT 4800 BR BKN020 OVC150 600202 QNH3007INS 
     BECMG 1920/1921 30010G15KT 9999 NSW FEW020 SCT100 QNH3008INS 
     BECMG 2002/2003 31025G30KT 9999 SKC QNH3015INS 
     BECMG 2014/2015 30015G25KT 9999 SKC QNH3018INS 
     BECMG 2016/2017 30010G15KT 9999 SKC QNH3023INS TX11/2006Z TNM02/1922Z
       
RKSM 191100Z 18002KT 9000 BR SCT130 01/M03 A3010
TAF RKSM 190500Z 1906/2012 24006KT 9000 HZ BKN040 BKN200 
     BECMG 1915/1916 30006KT 8000 BR SCT025 BKN100 
     BECMG 1921/1922 33006KT 8000 BR SCT030 VIS 9999 NSW AFT 2001 TNM04/1921Z
TX03/2006Z
       
RKNY 191100Z 24005KT 210V280 CAVOK 06/M04 Q1017 NOSIG
TAF RKNY 191100Z 1912/2018 25007KT 9999 SCT030 BKN100 TN03/1921Z TX04/2005Z 
     BECMG 2000/2001 28015G25KT CAVOK 
     BECMG 2015/2016 27020G35KT